Terminal Aerodrome Forecast
Issued by NWS Northern Indiana

Home | Current Version | Previous Version | Graphics & Text | Print | Product List | Glossary On
Versions: 1 2 3 4 5 6 7 8 9 10 11 12 13 14
318
FTUS43 KIWX 111727
TAFFWA
TAF
KFWA 111727Z 1118/1218 28008KT P6SM -SHSN SCT020 BKN040
      TEMPO 1118/1120 3SM -SHSN BKN020
     FM112300 25006KT P6SM SCT070 BKN250
     FM121500 27012G22KT 3SM -SN BKN020 OVC040=

USA.gov is the U.S. government's official web portal to all federal, state and local government web resources and services.